createdAt,value
2022-09-12T00:00:52.264Z,3.85
2022-09-12T00:03:19.163Z,3.60
2022-09-12T00:05:47.714Z,4.35
2022-09-12T00:08:15.086Z,3.00
2022-09-12T00:10:44.254Z,3.38
2022-09-12T00:13:11.869Z,2.88
2022-09-12T00:15:43.476Z,3.83
2022-09-12T00:18:15.444Z,4.22
2022-09-12T00:20:45.094Z,4.13
2022-09-12T00:23:12.899Z,3.70
2022-09-12T00:25:48.256Z,4.25
2022-09-12T00:28:17.649Z,5.05
2022-09-12T00:30:47.513Z,4.82
2022-09-12T00:33:17.503Z,4.28
2022-09-12T00:35:47.994Z,5.75
2022-09-12T00:38:16.847Z,5.10
2022-09-12T00:40:44.656Z,4.43
2022-09-12T00:43:35.929Z,4.53
2022-09-12T00:46:25.066Z,4.10
2022-09-12T00:49:11.219Z,4.28
2022-09-12T00:54:12.794Z,4.30
2022-09-12T00:56:42.107Z,4.60
2022-09-12T00:59:27.846Z,5.45
2022-09-12T01:01:56.298Z,5.35
2022-09-12T01:04:26.184Z,4.43
2022-09-12T01:06:54.564Z,3.70
2022-09-12T01:09:23.958Z,4.07
2022-09-12T01:11:53.348Z,3.92
2022-09-12T01:14:21.373Z,3.58
2022-09-12T01:16:50.989Z,3.30
2022-09-12T01:19:36.913Z,3.80
2022-09-12T01:22:52.254Z,3.85
2022-09-12T01:25:28.793Z,4.32
2022-09-12T01:28:27.635Z,4.55
2022-09-12T01:31:08.435Z,4.15
2022-09-12T01:34:09.525Z,4.95
2022-09-12T01:37:31.644Z,4.30
2022-09-12T01:40:23.936Z,4.53
2022-09-12T01:43:18.353Z,4.18
2022-09-12T01:46:08.920Z,4.35
2022-09-12T01:48:57.366Z,4.93
2022-09-12T01:51:36.538Z,3.80
2022-09-12T01:54:19.606Z,3.72
2022-09-12T01:56:51.777Z,3.53
2022-09-12T01:59:34.127Z,3.50
2022-09-12T02:02:12.705Z,3.42
2022-09-12T02:05:04.728Z,3.72
2022-09-12T02:07:48.268Z,4.88
2022-09-12T02:10:22.478Z,3.75
2022-09-12T02:13:09.425Z,5.00
2022-09-12T02:15:42.157Z,5.30
2022-09-12T02:18:14.597Z,4.07
2022-09-12T02:20:48.289Z,5.10
2022-09-12T02:23:24.403Z,4.10
2022-09-12T02:25:59.119Z,5.45
2022-09-12T02:28:33.128Z,5.03
2022-09-12T02:31:21.736Z,5.22
2022-09-12T02:34:42.129Z,5.10
2022-09-12T02:38:04.630Z,5.65
2022-09-12T02:40:32.951Z,4.78
2022-09-12T02:43:01.305Z,5.90
2022-09-12T02:45:29.477Z,6.93
2022-09-12T02:48:05.134Z,7.90
2022-09-12T02:50:32.810Z,9.10
2022-09-12T02:53:04.721Z,7.82
2022-09-12T02:55:37.442Z,6.72
2022-09-12T02:58:10.277Z,8.98
2022-09-12T03:01:08.427Z,8.80
2022-09-12T03:03:47.052Z,8.27
2022-09-12T03:06:28.913Z,8.05
2022-09-12T03:09:01.402Z,8.82
2022-09-12T03:12:03.138Z,7.03
2022-09-12T03:14:43.091Z,7.20
2022-09-12T03:17:27.579Z,8.55
2022-09-12T03:20:15.710Z,8.73
2022-09-12T03:22:57.279Z,7.25
2022-09-12T03:25:57.660Z,6.45
2022-09-12T03:28:24.859Z,7.13
2022-09-12T03:30:54.349Z,7.07
2022-09-12T03:33:23.733Z,7.57
2022-09-12T03:35:51.979Z,7.72
2022-09-12T03:38:19.411Z,7.82
2022-09-12T03:40:49.339Z,6.47
2022-09-12T03:43:18.401Z,6.93
2022-09-12T03:45:45.306Z,7.05
2022-09-12T03:48:12.185Z,6.57
2022-09-12T03:50:39.185Z,7.38
2022-09-12T03:53:06.076Z,7.35
2022-09-12T03:55:33.136Z,6.85
2022-09-12T03:58:00.113Z,7.13
2022-09-12T04:00:27.290Z,8.05
2022-09-12T04:02:58.212Z,5.90
2022-09-12T04:05:26.615Z,6.57
2022-09-12T04:07:53.483Z,8.73
2022-09-12T04:10:20.446Z,9.00
2022-09-12T04:12:47.633Z,7.53
2022-09-12T04:15:14.813Z,7.57
2022-09-12T04:17:41.727Z,8.23
2022-09-12T04:20:09.170Z,7.35
2022-09-12T04:22:36.313Z,6.53
2022-09-12T04:25:03.964Z,8.85
2022-09-12T04:27:31.014Z,8.38
2022-09-12T04:29:59.596Z,8.38
2022-09-12T04:32:26.718Z,8.27
2022-09-12T04:34:53.698Z,8.85
2022-09-12T04:37:21.211Z,7.53
2022-09-12T04:39:49.603Z,7.78
2022-09-12T04:42:16.938Z,7.55
2022-09-12T04:44:43.966Z,8.75
2022-09-12T04:47:10.876Z,8.88
2022-09-12T04:49:37.751Z,7.30
2022-09-12T04:52:04.837Z,8.77
2022-09-12T04:54:31.884Z,7.95
2022-09-12T04:56:59.566Z,5.50
2022-09-12T04:59:27.703Z,7.63
2022-09-12T05:01:54.755Z,7.63
2022-09-12T05:04:21.758Z,8.50
2022-09-12T05:06:48.707Z,7.72
2022-09-12T05:09:16.547Z,7.03
2022-09-12T05:14:33.067Z,7.85
2022-09-12T05:17:01.958Z,8.45
2022-09-12T05:19:30.820Z,9.45
2022-09-12T05:21:58.976Z,9.55
2022-09-12T05:24:26.373Z,10.38
2022-09-12T05:26:53.583Z,9.18
2022-09-12T05:29:20.454Z,9.82
2022-09-12T05:31:50.142Z,9.63
2022-09-12T05:34:17.013Z,10.73
2022-09-12T05:36:43.882Z,10.35
2022-09-12T05:39:10.723Z,11.20
2022-09-12T05:41:37.661Z,10.55
2022-09-12T05:44:07.637Z,10.82
2022-09-12T05:46:41.004Z,10.25
2022-09-12T05:49:11.720Z,11.90
2022-09-12T05:51:42.805Z,11.48
2022-09-12T05:54:14.085Z,12.00
2022-09-12T05:56:43.901Z,10.27
2022-09-12T05:59:20.513Z,12.13
2022-09-12T06:01:48.546Z,13.30
2022-09-12T06:04:16.039Z,12.60
2022-09-12T06:06:45.347Z,12.68
2022-09-12T06:09:15.287Z,12.57
2022-09-12T06:11:43.749Z,13.10
2022-09-12T06:14:13.980Z,12.77
2022-09-12T06:16:41.559Z,12.57
2022-09-12T06:19:19.611Z,14.65
2022-09-12T06:21:49.517Z,13.65
2022-09-12T06:24:18.318Z,14.32
2022-09-12T06:26:45.693Z,14.65
2022-09-12T06:29:13.382Z,14.38
2022-09-12T06:31:42.462Z,13.55
2022-09-12T06:34:14.031Z,14.30
2022-09-12T06:36:44.597Z,14.90
2022-09-12T06:39:16.206Z,13.50
2022-09-12T06:41:44.561Z,13.30
2022-09-12T06:44:20.870Z,15.55
2022-09-12T06:46:48.837Z,16.17
2022-09-12T06:49:15.933Z,15.27
2022-09-12T06:51:43.096Z,15.05
2022-09-12T06:54:14.181Z,15.68
2022-09-12T06:56:41.468Z,16.05
2022-09-12T06:59:08.654Z,16.55
2022-09-12T07:01:35.693Z,14.43
2022-09-12T07:04:04.496Z,15.68
2022-09-12T07:06:38.432Z,14.52
2022-09-12T07:09:08.187Z,17.13
2022-09-12T07:11:37.998Z,18.88
2022-09-12T07:14:07.134Z,18.55
2022-09-12T07:16:36.716Z,21.08
2022-09-12T07:19:06.430Z,21.95
2022-09-12T07:21:36.372Z,23.10
2022-09-12T07:24:03.448Z,26.27
2022-09-12T07:26:30.651Z,25.98
2022-09-12T07:29:18.629Z,29.15
2022-09-12T07:31:46.509Z,26.65
2022-09-12T07:34:13.940Z,26.38
2022-09-12T07:36:40.826Z,27.52
2022-09-12T07:39:07.699Z,27.70
2022-09-12T07:41:34.578Z,27.08
2022-09-12T07:44:03.386Z,31.10
2022-09-12T07:46:31.353Z,29.40
2022-09-12T07:49:00.544Z,30.83
2022-09-12T07:51:29.838Z,30.10
2022-09-12T07:53:56.978Z,27.23
2022-09-12T07:56:29.888Z,26.15
2022-09-12T07:58:57.717Z,27.42
2022-09-12T08:01:25.014Z,26.70
2022-09-12T08:03:59.771Z,26.42
2022-09-12T08:06:30.996Z,26.50
2022-09-12T08:08:59.523Z,25.88
2022-09-12T08:11:28.937Z,24.95
2022-09-12T08:13:57.905Z,25.77
2022-09-12T08:16:29.575Z,24.70
2022-09-12T08:18:56.918Z,22.52
2022-09-12T08:21:27.577Z,21.85
2022-09-12T08:23:58.280Z,21.15
2022-09-12T08:26:25.214Z,20.02
2022-09-12T08:28:53.320Z,21.60
2022-09-12T08:31:24.044Z,23.00
2022-09-12T08:33:51.782Z,20.85
2022-09-12T08:36:22.590Z,18.55
2022-09-12T08:38:59.287Z,21.23
2022-09-12T08:41:43.657Z,18.30
2022-09-12T08:44:40.999Z,20.92
2022-09-12T08:47:26.843Z,19.98
2022-09-12T08:50:03.757Z,18.35
2022-09-12T08:52:48.027Z,20.20
2022-09-12T08:55:28.680Z,19.58
2022-09-12T08:57:55.583Z,17.95
2022-09-12T09:00:22.585Z,17.35
2022-09-12T09:03:01.721Z,18.42
2022-09-12T09:05:50.034Z,17.55
2022-09-12T09:08:58.910Z,16.88
2022-09-12T09:12:01.467Z,17.33
2022-09-12T09:15:11.321Z,16.45
2022-09-12T09:17:54.618Z,14.88
2022-09-12T09:20:41.282Z,15.70
2022-09-12T09:23:15.334Z,14.35
2022-09-12T09:25:52.560Z,14.30
2022-09-12T09:28:32.385Z,13.18
2022-09-12T09:30:59.357Z,12.90
2022-09-12T09:33:34.927Z,12.48
2022-09-12T09:36:44.776Z,11.52
2022-09-12T09:39:31.442Z,10.13
2022-09-12T09:42:13.233Z,10.88
2022-09-12T09:44:40.557Z,9.13
2022-09-12T09:47:12.622Z,8.60
2022-09-12T09:49:39.913Z,7.95
2022-09-12T09:52:08.653Z,9.07
2022-09-12T09:54:57.373Z,8.13
2022-09-12T09:57:36.202Z,7.05
2022-09-12T10:00:32.410Z,7.57
2022-09-12T10:03:14.358Z,6.70
2022-09-12T10:05:51.808Z,7.18
2022-09-12T10:08:31.652Z,6.45
2022-09-12T10:11:02.982Z,5.63
2022-09-12T10:13:41.876Z,5.78
2022-09-12T10:16:22.618Z,5.60
2022-09-12T10:18:52.483Z,6.75
2022-09-12T10:21:42.189Z,6.18
2022-09-12T10:24:25.735Z,5.68
2022-09-12T10:26:57.880Z,6.05
2022-09-12T10:29:30.510Z,5.60
2022-09-12T10:32:08.402Z,5.40
2022-09-12T10:34:44.458Z,5.88
2022-09-12T10:37:24.674Z,4.70
2022-09-12T10:39:57.181Z,6.18
2022-09-12T10:42:49.354Z,5.60
2022-09-12T10:45:40.569Z,5.22
2022-09-12T10:48:29.698Z,5.03
2022-09-12T10:50:57.975Z,4.78
2022-09-12T10:53:44.295Z,4.13
2022-09-12T10:56:16.870Z,4.68
2022-09-12T10:59:24.155Z,4.63
2022-09-12T11:02:02.641Z,4.53
2022-09-12T11:04:50.534Z,3.97
2022-09-12T11:07:37.658Z,4.70
2022-09-12T11:10:35.742Z,4.70
2022-09-12T11:13:39.604Z,4.10
2022-09-12T11:16:54.174Z,4.22
2022-09-12T11:19:47.287Z,3.70
2022-09-12T11:22:45.272Z,3.40
2022-09-12T11:25:30.981Z,3.75
2022-09-12T11:31:37.321Z,3.30
2022-09-12T11:34:09.947Z,2.97
2022-09-12T11:37:20.006Z,3.00
2022-09-12T11:39:54.726Z,3.47
2022-09-12T11:42:31.011Z,4.20
2022-09-12T11:45:29.711Z,3.97
2022-09-12T11:48:04.604Z,3.63
2022-09-12T11:50:32.507Z,3.95
2022-09-12T11:53:31.664Z,2.40
2022-09-12T11:56:18.466Z,2.40
2022-09-12T11:58:58.463Z,2.05
2022-09-12T12:01:42.900Z,3.00
2022-09-12T12:04:15.825Z,2.65
2022-09-12T12:07:04.055Z,2.20
2022-09-12T12:09:31.517Z,1.83
2022-09-12T12:12:05.285Z,2.63
2022-09-12T12:14:46.867Z,2.85
2022-09-12T12:17:20.299Z,2.58
2022-09-12T12:20:02.170Z,2.35
2022-09-12T12:22:32.059Z,2.47
2022-09-12T12:25:29.723Z,2.67
2022-09-12T12:28:01.855Z,2.83
2022-09-12T12:30:31.936Z,2.65
2022-09-12T12:33:10.675Z,2.40
2022-09-12T12:35:46.371Z,2.53
2022-09-12T12:38:36.547Z,2.60
2022-09-12T12:41:18.644Z,2.70
2022-09-12T12:43:48.378Z,2.80
2022-09-12T12:46:22.720Z,2.70
2022-09-12T12:49:19.133Z,2.30
2022-09-12T12:51:57.446Z,3.10
2022-09-12T12:54:42.036Z,1.90
2022-09-12T12:57:31.661Z,2.42
2022-09-12T13:00:06.090Z,2.50
2022-09-12T13:02:49.455Z,2.77
2022-09-12T13:05:24.583Z,2.40
2022-09-12T13:08:16.876Z,2.30
2022-09-12T13:11:16.288Z,2.45
2022-09-12T13:13:57.426Z,2.33
2022-09-12T13:16:38.148Z,4.88
2022-09-12T13:19:27.478Z,3.20
2022-09-12T13:22:02.357Z,2.88
2022-09-12T13:24:29.211Z,3.95
2022-09-12T13:26:57.687Z,3.00
2022-09-12T13:29:27.652Z,3.00
2022-09-12T13:32:03.093Z,2.80
2022-09-12T13:34:35.702Z,2.33
2022-09-12T13:37:43.127Z,2.35
2022-09-12T13:40:33.068Z,3.50
2022-09-12T13:43:23.399Z,3.13
2022-09-12T13:45:50.735Z,2.50
2022-09-12T13:48:24.103Z,2.70
2022-09-12T13:50:55.964Z,2.20
2022-09-12T13:53:26.761Z,2.50
2022-09-12T13:56:00.294Z,2.40
2022-09-12T13:58:37.214Z,2.35
2022-09-12T14:01:09.964Z,2.60
2022-09-12T14:04:12.275Z,2.75
2022-09-12T14:06:52.886Z,2.65
2022-09-12T14:09:32.795Z,2.80
2022-09-12T14:11:59.888Z,2.33
2022-09-12T14:14:40.507Z,2.25
2022-09-12T14:17:21.888Z,2.50
2022-09-12T14:19:52.607Z,2.50
2022-09-12T14:22:20.544Z,2.10
2022-09-12T14:24:51.574Z,2.25
2022-09-12T14:27:29.146Z,2.03
2022-09-12T14:30:07.500Z,2.67
2022-09-12T14:32:35.458Z,2.22
2022-09-12T14:35:21.005Z,4.30
2022-09-12T14:40:21.850Z,2.40
2022-09-12T14:42:51.195Z,2.30
2022-09-12T14:45:27.534Z,2.47
2022-09-12T14:47:54.936Z,4.38
2022-09-12T14:50:29.561Z,3.53
2022-09-12T14:53:26.503Z,2.88
2022-09-12T14:56:13.043Z,2.70
2022-09-12T14:58:41.592Z,2.45
2022-09-12T15:01:08.452Z,2.08
2022-09-12T15:03:36.706Z,3.88
2022-09-12T15:06:07.999Z,2.45
2022-09-12T15:08:34.985Z,2.33
2022-09-12T15:11:01.877Z,2.28
2022-09-12T15:13:39.175Z,2.28
2022-09-12T15:16:10.870Z,2.03
2022-09-12T15:18:38.174Z,2.25
2022-09-12T15:21:07.882Z,2.20
2022-09-12T15:23:45.380Z,2.40
2022-09-12T15:26:16.457Z,1.65
2022-09-12T15:28:45.836Z,1.83
2022-09-12T15:31:30.006Z,1.90
2022-09-12T15:34:00.083Z,1.90
2022-09-12T15:36:28.867Z,2.03
2022-09-12T15:38:56.648Z,2.20
2022-09-12T15:41:35.641Z,2.03
2022-09-12T15:44:05.246Z,1.60
2022-09-12T15:46:32.226Z,2.05
2022-09-12T15:48:59.323Z,2.60
2022-09-12T15:51:26.304Z,2.20
2022-09-12T15:53:53.429Z,2.63
2022-09-12T15:56:21.884Z,1.98
2022-09-12T15:59:05.202Z,2.08
2022-09-12T16:01:32.478Z,2.25
2022-09-12T16:03:59.647Z,2.40
2022-09-12T16:06:27.859Z,2.22
2022-09-12T16:08:54.788Z,2.30
2022-09-12T16:11:27.299Z,2.25
2022-09-12T16:13:56.142Z,2.55
2022-09-12T16:16:23.104Z,2.40
2022-09-12T16:18:50.055Z,2.00
2022-09-12T16:21:17.041Z,1.90
2022-09-12T16:23:45.598Z,2.10
2022-09-12T16:26:12.577Z,1.80
2022-09-12T16:28:39.552Z,2.20
2022-09-12T16:31:09.214Z,2.10
2022-09-12T16:33:37.805Z,1.85
2022-09-12T16:36:08.618Z,2.15
2022-09-12T16:38:43.888Z,2.20
2022-09-12T16:43:38.812Z,2.25
2022-09-12T16:46:12.376Z,2.53
2022-09-12T16:48:49.311Z,3.40
2022-09-12T16:51:32.552Z,2.60
2022-09-12T16:53:59.623Z,2.30
2022-09-12T16:56:26.562Z,2.60
2022-09-12T16:58:54.050Z,2.20
2022-09-12T17:01:24.241Z,2.65
2022-09-12T17:03:58.731Z,2.53
2022-09-12T17:06:26.815Z,2.60
2022-09-12T17:08:58.040Z,2.55
2022-09-12T17:11:30.933Z,2.53
2022-09-12T17:14:05.351Z,3.13
2022-09-12T17:16:36.811Z,2.30
2022-09-12T17:19:05.417Z,2.50
2022-09-12T17:21:32.693Z,2.35
2022-09-12T17:23:59.538Z,2.22
2022-09-12T17:26:27.335Z,2.60
2022-09-12T17:28:54.319Z,2.15
2022-09-12T17:31:21.235Z,2.42
2022-09-12T17:33:48.269Z,2.40
2022-09-12T17:36:17.759Z,2.03
2022-09-12T17:38:46.082Z,2.58
2022-09-12T17:41:19.338Z,2.50
2022-09-12T17:43:50.687Z,2.42
2022-09-12T17:46:19.357Z,2.63
2022-09-12T17:48:55.179Z,2.72
2022-09-12T17:51:25.015Z,2.80
2022-09-12T17:54:15.661Z,2.80
2022-09-12T17:56:45.544Z,2.50
2022-09-12T17:59:21.599Z,3.08
2022-09-12T18:02:07.138Z,2.67
2022-09-12T18:04:34.294Z,3.47
2022-09-12T18:07:01.370Z,2.78
2022-09-12T18:09:28.640Z,2.55
2022-09-12T18:11:55.843Z,2.70
2022-09-12T18:14:23.728Z,3.40
2022-09-12T18:16:50.880Z,3.25
2022-09-12T18:19:18.462Z,3.08
2022-09-12T18:21:45.901Z,2.95
2022-09-12T18:24:13.275Z,3.05
2022-09-12T18:26:40.586Z,3.15
2022-09-12T18:29:07.857Z,3.55
2022-09-12T18:31:34.990Z,3.13
2022-09-12T18:34:02.721Z,2.83
2022-09-12T18:36:30.671Z,3.17
2022-09-12T18:38:59.104Z,3.67
2022-09-12T18:41:29.073Z,3.85
2022-09-12T18:44:01.005Z,3.10
2022-09-12T18:46:29.975Z,3.75
2022-09-12T18:48:59.036Z,3.28
2022-09-12T18:51:35.882Z,3.60
2022-09-12T18:54:07.044Z,3.08
2022-09-12T18:56:37.672Z,3.42
2022-09-12T18:59:06.981Z,3.22
2022-09-12T19:01:37.028Z,3.35
2022-09-12T19:04:05.682Z,3.22
2022-09-12T19:06:40.146Z,3.83
2022-09-12T19:09:09.096Z,3.90
2022-09-12T19:11:39.673Z,3.25
2022-09-12T19:14:07.703Z,3.10
2022-09-12T19:16:34.859Z,3.10
2022-09-12T19:19:02.630Z,3.35
2022-09-12T19:21:31.711Z,3.60
2022-09-12T19:24:05.695Z,3.40
2022-09-12T19:26:33.995Z,4.10
2022-09-12T19:29:02.832Z,4.10
2022-09-12T19:31:30.928Z,3.85
2022-09-12T19:34:03.169Z,4.25
2022-09-12T19:36:44.934Z,4.05
2022-09-12T19:39:13.108Z,4.32
2022-09-12T19:41:40.402Z,3.75
2022-09-12T19:44:09.426Z,4.80
2022-09-12T19:46:40.417Z,5.30
2022-09-12T19:49:07.492Z,6.05
2022-09-12T19:51:35.587Z,3.90
2022-09-12T19:54:03.644Z,3.42
2022-09-12T19:56:32.819Z,3.70
2022-09-12T19:58:59.869Z,4.30
2022-09-12T20:01:28.655Z,3.63
2022-09-12T20:03:57.848Z,3.55
2022-09-12T20:06:25.825Z,4.00
2022-09-12T20:08:53.916Z,4.00
2022-09-12T20:11:23.551Z,4.90
2022-09-12T20:13:50.607Z,3.75
2022-09-12T20:16:29.355Z,4.80
2022-09-12T20:19:03.854Z,4.10
2022-09-12T20:21:33.141Z,4.00
2022-09-12T20:24:14.520Z,3.88
2022-09-12T20:26:42.379Z,4.07
2022-09-12T20:29:09.587Z,4.13
2022-09-12T20:31:38.907Z,3.80
2022-09-12T20:34:06.682Z,3.78
2022-09-12T20:36:34.371Z,3.95
2022-09-12T20:39:02.483Z,4.68
2022-09-12T20:41:33.881Z,4.60
2022-09-12T20:44:00.889Z,4.20
2022-09-12T20:46:28.923Z,4.28
2022-09-12T20:48:56.325Z,4.25
2022-09-12T20:51:26.635Z,5.32
2022-09-12T20:53:54.837Z,4.28
2022-09-12T20:56:23.636Z,3.63
2022-09-12T20:58:51.099Z,3.55
2022-09-12T21:01:22.814Z,4.63
2022-09-12T21:03:50.069Z,4.88
2022-09-12T21:06:18.989Z,4.70
2022-09-12T21:08:47.610Z,4.13
2022-09-12T21:11:15.249Z,3.92
2022-09-12T21:13:42.347Z,4.45
2022-09-12T21:16:17.438Z,4.22
2022-09-12T21:18:45.991Z,3.90
2022-09-12T21:21:15.475Z,4.10
2022-09-12T21:23:42.548Z,4.30
2022-09-12T21:26:12.126Z,4.07
2022-09-12T21:28:39.304Z,4.00
2022-09-12T21:31:06.891Z,4.68
2022-09-12T21:33:33.920Z,4.38
2022-09-12T21:36:07.409Z,4.70
2022-09-12T21:38:34.817Z,4.22
2022-09-12T21:41:11.166Z,4.30
2022-09-12T21:43:38.526Z,4.20
2022-09-12T21:46:06.310Z,4.45
2022-09-12T21:48:33.928Z,5.40
2022-09-12T21:51:01.016Z,3.45
2022-09-12T21:53:27.884Z,4.55
2022-09-12T21:55:54.745Z,4.65
2022-09-12T21:58:21.560Z,4.90
2022-09-12T22:00:48.442Z,4.90
2022-09-12T22:03:16.880Z,4.28
2022-09-12T22:05:43.733Z,3.70
2022-09-12T22:08:11.346Z,4.43
2022-09-12T22:10:38.619Z,4.90
2022-09-12T22:13:05.686Z,4.63
2022-09-12T22:15:41.091Z,4.70
2022-09-12T22:18:08.498Z,4.97
2022-09-12T22:20:35.375Z,4.32
2022-09-12T22:23:24.523Z,5.00
2022-09-12T22:25:58.642Z,4.55
2022-09-12T22:28:25.644Z,5.03
2022-09-12T22:30:54.739Z,4.57
2022-09-12T22:33:21.740Z,4.63
2022-09-12T22:35:48.691Z,4.68
2022-09-12T22:38:15.583Z,4.47
2022-09-12T22:40:42.892Z,4.68
2022-09-12T22:43:09.786Z,4.03
2022-09-12T22:45:36.691Z,3.90
2022-09-12T22:48:07.343Z,4.57
2022-09-12T22:50:36.016Z,4.80
2022-09-12T22:53:02.971Z,4.60
2022-09-12T22:55:29.996Z,6.13
2022-09-12T22:57:56.956Z,4.50
2022-09-12T23:00:23.830Z,4.25
2022-09-12T23:02:50.748Z,3.97
2022-09-12T23:05:17.648Z,4.15
2022-09-12T23:07:44.497Z,4.63
2022-09-12T23:10:11.394Z,4.20
2022-09-12T23:12:38.293Z,4.07
2022-09-12T23:15:05.854Z,4.50
2022-09-12T23:17:34.968Z,4.10
2022-09-12T23:20:03.891Z,3.65
2022-09-12T23:22:30.974Z,3.90
2022-09-12T23:24:57.973Z,3.97
2022-09-12T23:27:27.720Z,3.65
2022-09-12T23:29:54.727Z,4.50
2022-09-12T23:32:21.572Z,3.88
2022-09-12T23:34:48.685Z,4.43
2022-09-12T23:37:15.708Z,4.40
2022-09-12T23:39:42.697Z,3.47
2022-09-12T23:42:09.637Z,3.90
2022-09-12T23:44:36.643Z,3.97
2022-09-12T23:47:03.561Z,3.60
2022-09-12T23:49:30.430Z,4.93
2022-09-12T23:51:57.360Z,3.78
2022-09-12T23:54:25.224Z,4.20
2022-09-12T23:56:52.408Z,3.58
2022-09-12T23:59:19.250Z,5.60
